• Join FlightAware (Why Join?)
  • Login
  • US Flag 
06:49PM EDT


 

Airport Tracker/Info


-or-


 

Live Flight TrackerFlight Track Log ✈ RPA3392 ✈ 21-Jul-2014 ✈ KDCA - KALB

Flight Track Log - Related Links

Times and Time Zones

All times are in EDT time to prevent confusion due to time zone crossing. See the RPA3392 flight status page for this flight to view local times or setup timezone preferences in your user account.

Time Position Orientation Groundspeed Altitude Reporting Facility
EDT Latitude Longitude Course Direction KTS MPH feet Rate Location/Type
11:02PM 38.8000 -77.0333 31° Northeast 180 207 2,600  Level Potomac TRACON
11:03PM 38.7500 -77.0333 180° South 235 270 4,600 2,760 Climbing Potomac TRACON
11:05PM 38.8006 -76.8461 71° East 250 288 12,000 2,940 Climbing Washington Center
11:06PM 39.2916 -76.6946 31° Northeast  Level Estimated
11:06PM 38.8536 -76.7431 57° Northeast 299 344 15,000  Level Washington Center
11:07PM 39.3794 -76.6254 31° Northeast  Level Estimated
11:07PM 38.9131 -76.6428 53° Northeast 332 382 17,700  Level Washington Center
11:08PM 38.9722 -76.5394 54° Northeast 350 403 20,000 2,340 Climbing Washington Center
11:09PM 39.0333 -76.4333 53° Northeast 361 415 22,400 1,440 Climbing Washington Center
11:10PM 39.0986 -76.3217 53° Northeast 372 428 23,000 300 Climbing Washington Center
11:11PM 39.1536 -76.2044 59° Northeast 377 434 23,000 600 Level Washington Center
11:12PM 39.1708 -76.0789 80° East 379 436 24,300 1,440 Climbing Washington Center
11:13PM 39.1881 -75.9369 81° East 385 443 26,000 1,320 Climbing Washington Center
11:14PM 39.2425 -75.8167 60° Northeast 385 443 27,000 480 Climbing Washington Center
11:15PM 39.3239 -75.7150 44° Northeast 386 444 27,000  Level Washington Center
11:16PM 39.4031 -75.6131 45° Northeast 392 451 27,000  Level Washington Center
11:17PM 39.5072 -75.5567 23° Northeast 392 451 27,000  Level Washington Center
11:18PM 39.6094 -75.4972 24° Northeast 392 451 27,000 720 Level Washington Center
11:19PM 39.7072 -75.4217 31° Northeast 398 458 28,500 960 Climbing Washington Center
11:20PM 39.7819 -75.3025 51° Northeast 404 465 29,000 240 Climbing Washington Center
11:21PM 39.8275 -75.2200 54° Northeast 431 496 29,000  Level New York Center
11:22PM 39.9039 -75.0681 57° Northeast 454 522 29,000  Level New York Center
11:23PM 39.9708 -74.9475 54° Northeast 454 522 29,000  Level New York Center
11:24PM 40.0586 -74.8225 47° Northeast 441 507 29,000  Level New York Center
11:25PM 40.1747 -74.7806 15° North 417 480 29,000  Level New York Center
11:26PM 40.2825 -74.7378 17° North 417 480 29,000  Level New York Center
11:29PM 40.5781 -74.6297 16° North 432 497 29,000  Level Boston Center
11:30PM 40.6936 -74.5878 15° North 432 497 29,000  Level Boston Center
11:31PM 40.8103 -74.5436 16° North 433 498 29,000  Level Boston Center
11:32PM 40.9258 -74.5011 16° North 434 499 29,000  Level Boston Center
11:33PM 41.0417 -74.4586 15° North 433 498 29,000 -60 Level Boston Center
11:34PM 41.1567 -74.4144 16° North 433 498 28,900 -1,080 Descending Boston Center
11:35PM 41.2625 -74.3756 15° North 429 494 26,900 -1,500 Descending Boston Center
11:36PM 41.3731 -74.3344 16° North 417 480 26,000 -480 Descending Boston Center
11:37PM 41.4850 -74.2914 16° North 417 480 26,000 -1,020 Level Boston Center
11:38PM 41.5944 -74.2506 16° North 414 476 23,900 -2,160 Descending Boston Center
11:39PM 41.7022 -74.2089 16° North 407 468 21,600 -2,520 Descending Boston Center
11:40PM 41.8214 -74.1636 16° North 392 451 19,000 -2,460 Descending Boston Center
11:41PM 41.9428 -74.1175 16° North 371 427 16,300 -2,220 Descending Boston Center
11:42PM 42.0267 -74.0839 17° North 368 423 14,600 -1,980 Descending Boston Center
11:42PM 42.0469 -74.0778 13° North 360 414 14,100 -2,040 Descending Boston Center
11:43PM 42.1197 -74.0475 17° North 353 406 12,500 -2,040 Descending Boston Center
11:43PM 42.1400 -74.0403 15° North 348 400 12,100 -1,800 Descending Boston Center
11:44PM 42.2106 -74.0128 16° North 341 392 10,800 -1,380 Descending Boston Center
11:44PM 42.2281 -74.0064 15° North 324 373 10,700 -1,380 Descending Boston Center
11:45PM 42.2861 -73.9839 16° North 284 327 9,400 -1,740 Descending Boston Center
11:45PM 42.3025 -73.9767 18° North 272 313 9,000 -2,100 Descending Boston Center
11:46PM 42.3608 -73.9544 16° North 282 325 7,400 -2,220 Descending Boston Center
11:46PM 42.3833 -73.9461 15° North 276 318 6,800 -1,800 Descending Boston Center
11:47PM 42.4344 -73.9486 358° North 277 319 5,600 -1,800 Descending Boston Center
11:47PM 42.4567 -73.9564 346° North 271 312 5,000 -1,620 Descending Boston Center
11:48PM 42.5072 -73.9697 349° North 269 310 4,000 -1,020 Descending Boston Center
11:48PM 42.5278 -73.9775 344° North 263 303 4,000  Level Boston Center
11:49PM 42.5792 -73.9903 350° North 268 308 4,000  Level Boston Center
11:49PM 42.5997 -73.9961 348° North 264 304 4,000  Level Boston Center
11:50PM 42.6553 -73.9917 North 256 295 4,000  Level Boston Center
11:50PM 42.6683 -73.9847 21° North 246 283 4,000  Level Boston Center
11:51PM 42.7164 -73.9642 17° North 232 267 4,000 -300 Level Boston Center
11:51PM 42.7289 -73.9589 17° North 219 252 3,700 -1,260 Descending Boston Center
11:52PM 42.7761 -73.9375 18° North 228 262 2,800 -1,020 Descending Boston Center
11:52PM 42.7897 -73.9328 14° North 221 254 2,700 -300 Descending Boston Center
11:53PM 42.8200 -73.8986 40° Northeast 199 229 2,500 -540 Descending Boston Center
11:53PM 42.8181 -73.8842 100° East 183 211 2,200 -1,020 Descending Boston Center
11:54PM 42.8147 -73.8306 95° East 181 208 1,500 -900 Descending Boston Center
11:54PM 42.8114 -73.8147 106° East 173 199 1,300 -720 Descending Boston Center
11:55PM 42.7869 -73.8067 166° South 142 163 800 -600 Descending Boston Center
11:55PM 42.7786 -73.8064 179° South 110 127 700 -540 Descending Boston Center
11:56PM 42.7550 -73.8044 177° South 119 137 300 -540 Descending Boston Center